Weather at Delmont Personal Use Heliport

Public forecast

Using degrees Fahrenheit for public forecast. Weather courtesy of forecast.io.

Closest aviation weather report (METAR) to Delmont Personal Use Heliport

Closest report is Arnold Palmer Regional Airport, 10.3 nm (19.1 km) SE. Retrieved 2022/01/17 04:55 UTC (10 minutes ago):

KLBE 170455Z AUTO 23008KT 8SM -UP OVC019 M02/M04 A2928 RMK AO2

Closest aviation forecast (TAF) to Delmont Personal Use Heliport

Closest forecast is Arnold Palmer Regional Airport, 10.3 nm (19.1 km) SE. Retrieved 2022-01-17 00:22 UTC (5 hours ago):

TAF KLBE 162320Z 1700/1724 03005KT 1SM -SN OVC020 WS020/12040KT FM170200 07010G19KT 1SM -SN OVC015 WS020/11045KT FM170600 02005KT 2SM -SN OVC007 FM171200 28012G22KT 1SM -SN OVC007 FM171700 29015G29KT 2SM -SHSN OVC015